createdAt,value
2023-01-27T00:00:57.388Z,98766.87
2023-01-27T00:01:59.345Z,98765.38
2023-01-27T00:03:01.488Z,98765.50
2023-01-27T00:04:03.945Z,98764.80
2023-01-27T00:05:12.607Z,98764.35
2023-01-27T00:06:14.595Z,98761.73
2023-01-27T00:07:17.084Z,98760.30
2023-01-27T00:08:19.477Z,98764.61
2023-01-27T00:09:21.365Z,98764.52
2023-01-27T00:10:23.500Z,98761.25
2023-01-27T00:11:44.135Z,98759.98
2023-01-27T00:13:06.946Z,98759.56
2023-01-27T00:14:08.932Z,98759.59
2023-01-27T00:15:13.839Z,98760.05
2023-01-27T00:16:15.817Z,98761.16
2023-01-27T00:17:17.707Z,98763.27
2023-01-27T00:18:19.547Z,98760.20
2023-01-27T00:19:21.518Z,98765.54
2023-01-27T00:20:43.171Z,98760.54
2023-01-27T00:22:03.709Z,98763.41
2023-01-27T00:23:24.719Z,98763.73
2023-01-27T00:24:36.002Z,98764.57
2023-01-27T00:25:37.901Z,98768.02
2023-01-27T00:26:40.157Z,98765.69
2023-01-27T00:27:42.234Z,98769.19
2023-01-27T00:28:46.171Z,98767.27
2023-01-27T00:29:47.962Z,98768.30
2023-01-27T00:30:50.539Z,98766.96
2023-01-27T00:32:11.585Z,98770.52
2023-01-27T00:33:26.988Z,98769.94
2023-01-27T00:34:28.915Z,98770.74
2023-01-27T00:35:30.821Z,98771.20
2023-01-27T00:36:32.626Z,98770.11
2023-01-27T00:37:34.806Z,98774.71
2023-01-27T00:38:40.894Z,98772.85
2023-01-27T00:39:42.928Z,98775.36
2023-01-27T00:41:05.226Z,98776.87
2023-01-27T00:42:07.460Z,98779.04
2023-01-27T00:43:10.866Z,98781.02
2023-01-27T00:44:13.539Z,98785.34
2023-01-27T00:45:34.666Z,98785.96
2023-01-27T00:46:36.537Z,98782.86
2023-01-27T00:47:38.499Z,98784.42
2023-01-27T00:48:40.692Z,98785.21
2023-01-27T00:49:42.617Z,98785.68
2023-01-27T00:50:44.642Z,98787.90
2023-01-27T00:51:46.592Z,98789.22
2023-01-27T00:52:48.598Z,98788.58
2023-01-27T00:53:50.772Z,98790.23
2023-01-27T00:54:52.625Z,98792.46
2023-01-27T00:55:54.520Z,98790.17
2023-01-27T00:56:56.385Z,98790.49
2023-01-27T00:57:58.227Z,98789.30
2023-01-27T00:59:00.855Z,98791.11
2023-01-27T01:00:04.922Z,98792.23
2023-01-27T01:01:11.108Z,98792.06
2023-01-27T01:02:31.057Z,98792.63
2023-01-27T01:03:35.433Z,98797.10
2023-01-27T01:04:37.248Z,98796.27
2023-01-27T01:05:39.291Z,98797.45
2023-01-27T01:06:41.104Z,98796.48
2023-01-27T01:07:43.044Z,98799.41
2023-01-27T01:08:46.106Z,98799.04
2023-01-27T01:09:48.156Z,98796.79
2023-01-27T01:10:50.547Z,98798.54
2023-01-27T01:11:52.438Z,98799.71
2023-01-27T01:12:54.319Z,98796.83
2023-01-27T01:13:56.790Z,98794.52
2023-01-27T01:14:58.860Z,98796.09
2023-01-27T01:16:13.956Z,98793.36
2023-01-27T01:17:16.219Z,98794.35
2023-01-27T01:18:18.095Z,98790.02
2023-01-27T01:19:20.497Z,98790.60
2023-01-27T01:20:22.402Z,98789.77
2023-01-27T01:21:24.708Z,98791.92
2023-01-27T01:22:26.562Z,98791.08
2023-01-27T01:23:28.579Z,98794.98
2023-01-27T01:24:31.018Z,98793.81
2023-01-27T01:25:34.233Z,98789.24
2023-01-27T01:26:36.825Z,98786.55
2023-01-27T01:27:38.807Z,98787.89
2023-01-27T01:28:40.961Z,98784.63
2023-01-27T01:29:42.825Z,98784.70
2023-01-27T01:30:44.671Z,98783.90
2023-01-27T01:31:46.719Z,98782.80
2023-01-27T01:32:48.653Z,98781.30
2023-01-27T01:33:51.657Z,98777.26
2023-01-27T01:34:53.511Z,98778.15
2023-01-27T01:35:55.510Z,98776.40
2023-01-27T01:36:57.382Z,98775.14
2023-01-27T01:37:59.214Z,98773.54
2023-01-27T01:39:01.148Z,98777.02
2023-01-27T01:40:03.473Z,98776.08
2023-01-27T01:41:07.550Z,98778.41
2023-01-27T01:42:09.483Z,98776.45
2023-01-27T01:43:16.867Z,98774.54
2023-01-27T01:44:24.881Z,98771.39
2023-01-27T01:45:33.777Z,98773.27
2023-01-27T01:46:35.693Z,98776.09
2023-01-27T01:47:38.356Z,98776.15
2023-01-27T01:48:58.507Z,98777.75
2023-01-27T01:50:00.426Z,98777.16
2023-01-27T01:51:13.773Z,98776.33
2023-01-27T01:52:21.487Z,98772.43
2023-01-27T01:53:33.053Z,98773.50
2023-01-27T01:54:51.974Z,98774.52
2023-01-27T01:55:54.038Z,98774.98
2023-01-27T01:57:23.216Z,98775.30
2023-01-27T01:58:28.180Z,98778.26
2023-01-27T01:59:44.439Z,98776.41
2023-01-27T02:00:46.502Z,98777.67
2023-01-27T02:01:50.693Z,98779.61
2023-01-27T02:02:54.689Z,98779.28
2023-01-27T02:04:03.797Z,98776.87
2023-01-27T02:05:11.788Z,98777.92
2023-01-27T02:06:14.835Z,98775.58
2023-01-27T02:07:28.522Z,98773.87
2023-01-27T02:08:51.827Z,98774.40
2023-01-27T02:09:56.497Z,98773.17
2023-01-27T02:10:58.593Z,98773.63
2023-01-27T02:12:00.796Z,98775.08
2023-01-27T02:13:03.534Z,98771.77
2023-01-27T02:14:05.507Z,98772.01
2023-01-27T02:15:11.433Z,98776.92
2023-01-27T02:16:14.192Z,98775.16
2023-01-27T02:17:16.649Z,98775.37
2023-01-27T02:18:18.827Z,98771.41
2023-01-27T02:19:51.524Z,98771.61
2023-01-27T02:20:55.358Z,98775.29
2023-01-27T02:21:59.263Z,98775.11
2023-01-27T02:23:13.169Z,98779.27
2023-01-27T02:24:15.147Z,98779.16
2023-01-27T02:25:32.648Z,98779.51
2023-01-27T02:26:42.941Z,98783.14
2023-01-27T02:27:44.871Z,98785.79
2023-01-27T02:28:55.252Z,98791.64
2023-01-27T02:29:57.284Z,98787.48
2023-01-27T02:30:59.277Z,98788.20
2023-01-27T02:32:01.541Z,98792.00
2023-01-27T02:33:03.571Z,98790.35
2023-01-27T02:34:13.959Z,98787.88
2023-01-27T02:35:41.798Z,98788.69
2023-01-27T02:36:54.322Z,98788.45
2023-01-27T02:37:58.129Z,98790.74
2023-01-27T02:39:03.015Z,98789.19
2023-01-27T02:40:06.649Z,98792.05
2023-01-27T02:41:16.339Z,98793.43
2023-01-27T02:42:19.597Z,98791.52
2023-01-27T02:43:21.536Z,98790.55
2023-01-27T02:44:23.643Z,98793.94
2023-01-27T02:45:26.545Z,98793.63
2023-01-27T02:46:29.328Z,98791.27
2023-01-27T02:47:31.473Z,98793.67
2023-01-27T02:48:34.376Z,98795.83
2023-01-27T02:49:36.463Z,98795.85
2023-01-27T02:50:38.584Z,98795.63
2023-01-27T02:51:41.206Z,98795.39
2023-01-27T02:52:43.683Z,98794.13
2023-01-27T02:53:47.000Z,98792.88
2023-01-27T02:54:49.227Z,98796.84
2023-01-27T02:55:51.476Z,98796.83
2023-01-27T02:56:53.400Z,98797.85
2023-01-27T02:57:57.120Z,98795.92
2023-01-27T02:59:42.422Z,98793.46
2023-01-27T03:00:45.356Z,98796.98
2023-01-27T03:01:47.733Z,98796.75
2023-01-27T03:02:49.729Z,98797.30
2023-01-27T03:03:52.521Z,98796.50
2023-01-27T03:04:55.053Z,98795.31
2023-01-27T03:05:57.129Z,98795.48
2023-01-27T03:06:58.964Z,98798.65
2023-01-27T03:08:02.354Z,98798.98
2023-01-27T03:09:06.003Z,98799.38
2023-01-27T03:10:09.698Z,98799.03
2023-01-27T03:11:11.893Z,98799.20
2023-01-27T03:12:20.094Z,98798.95
2023-01-27T03:13:23.676Z,98798.45
2023-01-27T03:14:45.505Z,98801.92
2023-01-27T03:16:07.066Z,98802.33
2023-01-27T03:17:27.634Z,98804.44
2023-01-27T03:18:29.883Z,98799.61
2023-01-27T03:19:31.827Z,98799.34
2023-01-27T03:20:33.634Z,98800.03
2023-01-27T03:21:35.544Z,98797.27
2023-01-27T03:22:37.578Z,98797.19
2023-01-27T03:23:39.888Z,98798.77
2023-01-27T03:24:41.881Z,98799.50
2023-01-27T03:25:48.293Z,98797.82
2023-01-27T03:26:50.413Z,98799.13
2023-01-27T03:27:53.264Z,98800.59
2023-01-27T03:29:37.290Z,98801.58
2023-01-27T03:30:41.624Z,98800.67
2023-01-27T03:31:49.782Z,98801.58
2023-01-27T03:32:51.696Z,98801.80
2023-01-27T03:34:23.709Z,98800.10
2023-01-27T03:35:34.545Z,98801.52
2023-01-27T03:36:55.319Z,98802.44
2023-01-27T03:38:16.639Z,98799.90
2023-01-27T03:39:37.618Z,98804.65
2023-01-27T03:40:58.139Z,98802.48
2023-01-27T03:42:18.930Z,98800.45
2023-01-27T03:43:39.425Z,98801.38
2023-01-27T03:45:00.204Z,98799.89
2023-01-27T03:46:18.819Z,98801.31
2023-01-27T03:47:20.935Z,98799.40
2023-01-27T03:48:23.300Z,98801.40
2023-01-27T03:49:25.864Z,98797.73
2023-01-27T03:50:37.884Z,98798.08
2023-01-27T03:51:40.280Z,98796.16
2023-01-27T03:53:02.048Z,98795.47
2023-01-27T03:54:03.989Z,98797.22
2023-01-27T03:55:09.566Z,98801.02
2023-01-27T03:56:12.703Z,98798.89
2023-01-27T03:57:15.041Z,98801.38
2023-01-27T03:58:24.942Z,98803.86
2023-01-27T03:59:26.798Z,98803.96
2023-01-27T04:00:28.703Z,98806.05
2023-01-27T04:01:30.659Z,98805.26
2023-01-27T04:02:52.105Z,98804.66
2023-01-27T04:04:12.864Z,98806.27
2023-01-27T04:05:33.653Z,98807.88
2023-01-27T04:06:58.451Z,98806.09
2023-01-27T04:08:00.889Z,98806.02
2023-01-27T04:09:03.765Z,98802.98
2023-01-27T04:10:07.054Z,98805.23
2023-01-27T04:11:30.261Z,98801.49
2023-01-27T04:12:33.777Z,98801.96
2023-01-27T04:13:35.643Z,98802.10
2023-01-27T04:14:42.251Z,98798.81
2023-01-27T04:15:44.226Z,98803.89
2023-01-27T04:16:46.252Z,98801.90
2023-01-27T04:17:48.048Z,98806.09
2023-01-27T04:18:50.530Z,98805.73
2023-01-27T04:19:52.783Z,98807.48
2023-01-27T04:20:54.594Z,98802.63
2023-01-27T04:21:57.962Z,98810.10
2023-01-27T04:23:00.203Z,98809.48
2023-01-27T04:24:04.346Z,98809.73
2023-01-27T04:25:08.564Z,98806.86
2023-01-27T04:26:10.424Z,98806.04
2023-01-27T04:27:20.323Z,98809.52
2023-01-27T04:28:41.703Z,98809.06
2023-01-27T04:29:45.245Z,98804.95
2023-01-27T04:30:47.581Z,98806.50
2023-01-27T04:31:50.258Z,98805.31
2023-01-27T04:32:52.229Z,98805.73
2023-01-27T04:33:54.261Z,98804.71
2023-01-27T04:34:56.222Z,98807.44
2023-01-27T04:35:58.085Z,98807.95
2023-01-27T04:37:00.621Z,98806.27
2023-01-27T04:38:02.501Z,98808.80
2023-01-27T04:39:04.427Z,98809.00
2023-01-27T04:40:07.513Z,98811.80
2023-01-27T04:41:09.900Z,98810.89
2023-01-27T04:42:11.934Z,98813.74
2023-01-27T04:43:14.631Z,98812.75
2023-01-27T04:44:16.541Z,98814.70
2023-01-27T04:45:18.387Z,98814.91
2023-01-27T04:46:20.249Z,98819.03
2023-01-27T04:47:22.224Z,98819.68
2023-01-27T04:48:24.388Z,98815.52
2023-01-27T04:49:27.245Z,98816.12
2023-01-27T04:50:29.263Z,98816.73
2023-01-27T04:51:32.820Z,98816.88
2023-01-27T04:52:34.913Z,98818.78
2023-01-27T04:53:36.826Z,98817.92
2023-01-27T04:54:38.595Z,98815.69
2023-01-27T04:55:45.229Z,98816.62
2023-01-27T04:57:03.673Z,98816.89
2023-01-27T04:58:05.803Z,98819.10
2023-01-27T04:59:13.292Z,98818.05
2023-01-27T05:00:17.421Z,98819.92
2023-01-27T05:01:20.423Z,98819.27
2023-01-27T05:02:22.236Z,98821.52
2023-01-27T05:03:24.210Z,98821.77
2023-01-27T05:04:27.262Z,98824.16
2023-01-27T05:05:29.118Z,98825.96
2023-01-27T05:06:30.980Z,98825.90
2023-01-27T05:07:33.466Z,98826.75
2023-01-27T05:08:35.338Z,98826.41
2023-01-27T05:09:37.247Z,98824.85
2023-01-27T05:10:39.085Z,98823.03
2023-01-27T05:11:41.052Z,98826.29
2023-01-27T05:12:42.859Z,98823.96
2023-01-27T05:13:46.048Z,98824.08
2023-01-27T05:14:47.927Z,98824.88
2023-01-27T05:15:50.069Z,98827.00
2023-01-27T05:16:52.132Z,98826.59
2023-01-27T05:17:54.475Z,98825.63
2023-01-27T05:18:56.405Z,98829.29
2023-01-27T05:19:58.244Z,98828.48
2023-01-27T05:21:01.710Z,98828.95
2023-01-27T05:22:03.614Z,98831.80
2023-01-27T05:23:59.104Z,98832.23
2023-01-27T05:25:01.338Z,98837.10
2023-01-27T05:26:06.962Z,98837.84
2023-01-27T05:27:08.786Z,98836.55
2023-01-27T05:28:11.262Z,98836.94
2023-01-27T05:29:13.067Z,98837.05
2023-01-27T05:30:14.943Z,98838.23
2023-01-27T05:31:20.459Z,98843.85
2023-01-27T05:32:22.568Z,98841.09
2023-01-27T05:33:24.574Z,98840.36
2023-01-27T05:34:26.449Z,98843.18
2023-01-27T05:35:28.544Z,98845.09
2023-01-27T05:36:31.084Z,98844.80
2023-01-27T05:37:32.942Z,98844.18
2023-01-27T05:38:35.535Z,98845.75
2023-01-27T05:39:37.510Z,98843.70
2023-01-27T05:40:39.384Z,98844.91
2023-01-27T05:41:41.382Z,98843.01
2023-01-27T05:42:43.262Z,98843.58
2023-01-27T05:43:47.332Z,98844.56
2023-01-27T05:44:50.522Z,98844.39
2023-01-27T05:45:52.545Z,98843.49
2023-01-27T05:46:54.366Z,98846.73
2023-01-27T05:47:56.170Z,98844.14
2023-01-27T05:49:01.321Z,98843.06
2023-01-27T05:50:03.259Z,98842.73
2023-01-27T05:51:06.343Z,98844.52
2023-01-27T05:52:08.396Z,98847.55
2023-01-27T05:53:10.286Z,98847.20
2023-01-27T05:54:12.100Z,98845.89
2023-01-27T05:55:14.489Z,98849.39
2023-01-27T05:56:19.146Z,98846.45
2023-01-27T05:57:21.003Z,98849.34
2023-01-27T05:58:24.127Z,98847.89
2023-01-27T05:59:26.167Z,98852.85
2023-01-27T06:00:27.984Z,98849.79
2023-01-27T06:01:34.118Z,98852.42
2023-01-27T06:02:36.046Z,98851.36
2023-01-27T06:03:39.413Z,98856.43
2023-01-27T06:04:41.306Z,98858.98
2023-01-27T06:05:57.186Z,98861.75
2023-01-27T06:06:59.115Z,98860.62
2023-01-27T06:08:00.905Z,98856.92
2023-01-27T06:09:02.821Z,98860.48
2023-01-27T06:10:05.885Z,98857.44
2023-01-27T06:11:09.332Z,98858.52
2023-01-27T06:12:11.161Z,98858.06
2023-01-27T06:13:13.437Z,98862.11
2023-01-27T06:14:15.382Z,98861.23
2023-01-27T06:15:17.324Z,98860.67
2023-01-27T06:16:22.504Z,98860.80
2023-01-27T06:17:24.421Z,98859.71
2023-01-27T06:18:26.302Z,98861.08
2023-01-27T06:19:28.299Z,98865.88
2023-01-27T06:20:30.448Z,98865.88
2023-01-27T06:21:32.369Z,98869.89
2023-01-27T06:22:34.395Z,98870.90
2023-01-27T06:23:36.418Z,98874.27
2023-01-27T06:24:38.299Z,98874.54
2023-01-27T06:25:43.652Z,98878.84
2023-01-27T06:26:45.417Z,98879.33
2023-01-27T06:27:48.560Z,98882.80
2023-01-27T06:28:50.439Z,98882.40
2023-01-27T06:29:52.368Z,98881.46
2023-01-27T06:30:54.530Z,98883.36
2023-01-27T06:31:56.613Z,98882.09
2023-01-27T06:32:58.439Z,98883.26
2023-01-27T06:34:00.616Z,98890.70
2023-01-27T06:35:02.969Z,98889.34
2023-01-27T06:36:09.375Z,98888.58
2023-01-27T06:37:11.239Z,98888.41
2023-01-27T06:38:15.461Z,98886.35
2023-01-27T06:39:17.448Z,98884.28
2023-01-27T06:40:19.404Z,98883.75
2023-01-27T06:41:21.718Z,98889.23
2023-01-27T06:42:23.830Z,98889.36
2023-01-27T06:43:26.025Z,98895.05
2023-01-27T06:44:27.942Z,98896.48
2023-01-27T06:45:30.549Z,98895.67
2023-01-27T06:46:33.205Z,98896.02
2023-01-27T06:47:35.149Z,98896.35
2023-01-27T06:48:38.088Z,98897.15
2023-01-27T06:49:39.917Z,98896.77
2023-01-27T06:50:42.450Z,98890.98
2023-01-27T06:51:44.633Z,98892.18
2023-01-27T06:52:46.620Z,98890.03
2023-01-27T06:53:48.423Z,98890.94
2023-01-27T06:54:50.283Z,98893.40
2023-01-27T06:55:57.071Z,98895.39
2023-01-27T06:56:59.257Z,98897.65
2023-01-27T06:58:02.608Z,98893.48
2023-01-27T06:59:05.043Z,98893.65
2023-01-27T07:00:08.099Z,98894.66
2023-01-27T07:01:10.321Z,98897.65
2023-01-27T07:02:13.284Z,98896.73
2023-01-27T07:03:18.300Z,98897.06
2023-01-27T07:04:20.183Z,98899.24
2023-01-27T07:05:22.051Z,98900.23
2023-01-27T07:06:23.903Z,98903.23
2023-01-27T07:07:26.180Z,98901.05
2023-01-27T07:08:28.079Z,98897.10
2023-01-27T07:09:33.551Z,98900.45
2023-01-27T07:10:39.617Z,98902.39
2023-01-27T07:11:41.410Z,98904.34
2023-01-27T07:12:43.265Z,98901.77
2023-01-27T07:13:45.169Z,98900.80
2023-01-27T07:14:47.049Z,98897.86
2023-01-27T07:15:55.825Z,98899.38
2023-01-27T07:16:57.779Z,98899.30
2023-01-27T07:18:01.357Z,98900.05
2023-01-27T07:19:03.232Z,98898.83
2023-01-27T07:20:07.186Z,98901.97
2023-01-27T07:21:09.318Z,98898.88
2023-01-27T07:22:11.183Z,98901.95
2023-01-27T07:23:13.343Z,98902.70
2023-01-27T07:24:15.273Z,98901.30
2023-01-27T07:25:17.377Z,98902.11
2023-01-27T07:26:24.886Z,98899.19
2023-01-27T07:27:28.354Z,98900.00
2023-01-27T07:28:30.376Z,98901.00
2023-01-27T07:29:32.261Z,98900.08
2023-01-27T07:30:35.158Z,98900.71
2023-01-27T07:31:37.065Z,98901.73
2023-01-27T07:32:38.941Z,98903.44
2023-01-27T07:33:40.974Z,98901.58
2023-01-27T07:34:42.883Z,98904.01
2023-01-27T07:35:49.852Z,98906.34
2023-01-27T07:36:51.956Z,98907.33
2023-01-27T07:37:53.833Z,98910.89
2023-01-27T07:38:55.788Z,98906.02
2023-01-27T07:39:57.621Z,98907.42
2023-01-27T07:41:05.225Z,98908.58
2023-01-27T07:42:08.746Z,98906.63
2023-01-27T07:43:12.129Z,98903.92
2023-01-27T07:44:15.618Z,98905.42
2023-01-27T07:45:17.443Z,98905.95
2023-01-27T07:46:19.623Z,98906.61
2023-01-27T07:47:23.410Z,98908.40
2023-01-27T07:48:25.861Z,98912.20
2023-01-27T07:49:27.767Z,98909.67
2023-01-27T07:50:29.985Z,98910.16
2023-01-27T07:51:31.957Z,98911.27
2023-01-27T07:52:33.927Z,98911.05
2023-01-27T07:53:35.999Z,98912.77
2023-01-27T07:54:37.865Z,98912.32
2023-01-27T07:55:39.848Z,98910.52
2023-01-27T07:56:41.861Z,98911.14
2023-01-27T07:57:43.980Z,98909.61
2023-01-27T07:58:45.862Z,98908.66
2023-01-27T07:59:48.393Z,98906.77
2023-01-27T08:00:50.400Z,98908.11
2023-01-27T08:01:52.403Z,98910.24
2023-01-27T08:02:56.024Z,98909.16
2023-01-27T08:03:58.621Z,98908.56
2023-01-27T08:05:00.789Z,98912.00
2023-01-27T08:06:11.528Z,98912.57
2023-01-27T08:07:13.335Z,98911.85
2023-01-27T08:08:15.256Z,98913.48
2023-01-27T08:09:17.243Z,98913.35
2023-01-27T08:10:19.958Z,98915.23
2023-01-27T08:11:21.861Z,98914.47
2023-01-27T08:12:23.836Z,98914.52
2023-01-27T08:13:26.064Z,98912.10
2023-01-27T08:14:27.913Z,98913.91
2023-01-27T08:15:29.981Z,98908.50
2023-01-27T08:16:31.953Z,98912.91
2023-01-27T08:17:33.826Z,98909.48
2023-01-27T08:18:35.756Z,98912.46
2023-01-27T08:19:37.629Z,98912.02
2023-01-27T08:20:40.246Z,98913.69
2023-01-27T08:21:42.126Z,98916.58
2023-01-27T08:22:44.706Z,98917.71
2023-01-27T08:23:46.976Z,98916.86
2023-01-27T08:24:50.027Z,98917.55
2023-01-27T08:25:54.070Z,98919.53
2023-01-27T08:26:56.594Z,98922.72
2023-01-27T08:27:58.444Z,98925.98
2023-01-27T08:29:00.266Z,98924.04
2023-01-27T08:30:02.132Z,98927.23
2023-01-27T08:31:08.710Z,98924.61
2023-01-27T08:32:11.780Z,98928.96
2023-01-27T08:34:35.237Z,98932.69
2023-01-27T08:35:38.781Z,98932.07
2023-01-27T08:36:44.350Z,98932.72
2023-01-27T08:37:48.765Z,98933.58
2023-01-27T08:38:51.963Z,98932.03
2023-01-27T08:39:53.787Z,98931.20
2023-01-27T08:40:58.047Z,98930.67
2023-01-27T08:42:04.473Z,98928.80
2023-01-27T08:43:07.471Z,98926.73
2023-01-27T08:44:09.326Z,98933.52
2023-01-27T08:45:11.594Z,98933.60
2023-01-27T08:46:13.971Z,98932.69
2023-01-27T08:47:15.781Z,98933.83
2023-01-27T08:48:17.591Z,98933.63
2023-01-27T08:49:19.504Z,98939.46
2023-01-27T08:50:21.449Z,98938.84
2023-01-27T08:51:23.876Z,98937.70
2023-01-27T08:52:27.796Z,98938.38
2023-01-27T08:53:30.403Z,98937.75
2023-01-27T08:54:32.302Z,98939.88
2023-01-27T08:55:34.258Z,98941.29
2023-01-27T08:56:36.167Z,98947.30
2023-01-27T08:57:38.032Z,98946.30
2023-01-27T08:58:41.104Z,98949.56
2023-01-27T08:59:42.949Z,98952.68
2023-01-27T09:00:45.151Z,98953.24
2023-01-27T09:01:47.207Z,98952.84
2023-01-27T09:02:53.098Z,98953.63
2023-01-27T09:03:54.986Z,98951.42
2023-01-27T09:04:57.050Z,98954.05
2023-01-27T09:05:59.834Z,98951.92
2023-01-27T09:07:01.724Z,98949.91
2023-01-27T09:08:04.839Z,98948.85
2023-01-27T09:09:11.430Z,98955.52
2023-01-27T09:10:15.702Z,98957.27
2023-01-27T09:11:18.252Z,98953.96
2023-01-27T09:12:20.282Z,98954.83
2023-01-27T09:13:22.486Z,98952.80
2023-01-27T09:14:24.603Z,98953.08
2023-01-27T09:15:26.580Z,98951.70
2023-01-27T09:16:29.161Z,98953.89
2023-01-27T09:18:02.057Z,98956.29
2023-01-27T09:19:04.052Z,98960.16
2023-01-27T09:20:06.853Z,98960.11
2023-01-27T09:21:08.810Z,98962.20
2023-01-27T09:22:10.643Z,98963.95
2023-01-27T09:23:13.023Z,98965.95
2023-01-27T09:24:18.048Z,98964.61
2023-01-27T09:25:20.238Z,98968.22
2023-01-27T09:26:22.261Z,98966.64
2023-01-27T09:27:37.312Z,98965.37
2023-01-27T09:28:41.177Z,98964.02
2023-01-27T09:29:43.110Z,98968.54
2023-01-27T09:30:46.503Z,98966.67
2023-01-27T09:31:48.637Z,98966.79
2023-01-27T09:32:51.362Z,98967.59
2023-01-27T09:33:53.329Z,98967.20
2023-01-27T09:34:55.443Z,98968.40
2023-01-27T09:36:02.037Z,98972.79
2023-01-27T09:37:10.691Z,98970.04
2023-01-27T09:38:18.335Z,98969.05
2023-01-27T09:39:22.245Z,98968.36
2023-01-27T09:40:38.885Z,98968.86
2023-01-27T09:42:03.526Z,98971.81
2023-01-27T09:43:21.619Z,98969.00
2023-01-27T09:44:26.496Z,98970.59
2023-01-27T09:46:03.850Z,98969.16
2023-01-27T09:47:11.796Z,98969.95
2023-01-27T09:48:34.057Z,98966.09
2023-01-27T09:50:17.294Z,98966.04
2023-01-27T09:51:40.822Z,98966.57
2023-01-27T09:53:04.748Z,98967.41
2023-01-27T09:54:21.185Z,98966.23
2023-01-27T09:56:02.903Z,98970.13
2023-01-27T09:57:19.800Z,98975.16
2023-01-27T09:58:24.895Z,98974.77
2023-01-27T09:59:48.304Z,98975.05
2023-01-27T10:01:07.081Z,98975.61
2023-01-27T10:02:40.678Z,98972.36
2023-01-27T10:03:45.307Z,98973.19
2023-01-27T10:04:58.946Z,98973.45
2023-01-27T10:06:39.419Z,98974.17
2023-01-27T10:08:12.833Z,98976.61
2023-01-27T10:09:55.057Z,98973.48
2023-01-27T10:11:41.684Z,98975.55
2023-01-27T10:13:11.221Z,98979.11
2023-01-27T10:14:27.562Z,98982.92
2023-01-27T10:16:01.937Z,98990.73
2023-01-27T10:17:24.541Z,98985.77
2023-01-27T10:18:53.818Z,98983.45
2023-01-27T10:19:58.669Z,98984.88
2023-01-27T10:21:38.009Z,98981.84
2023-01-27T10:22:53.995Z,98984.05
2023-01-27T10:24:28.577Z,98985.13
2023-01-27T10:26:02.714Z,98981.77
2023-01-27T10:27:18.199Z,98980.17
2023-01-27T10:28:28.206Z,98982.84
2023-01-27T10:29:51.739Z,98982.34
2023-01-27T10:31:02.154Z,98981.80
2023-01-27T10:32:39.817Z,98980.17
2023-01-27T10:33:54.955Z,98980.61
2023-01-27T10:35:21.202Z,98980.04
2023-01-27T10:36:40.591Z,98983.48
2023-01-27T10:38:05.159Z,98983.86
2023-01-27T10:39:34.289Z,98984.05
2023-01-27T10:41:15.239Z,98987.23
2023-01-27T10:42:52.278Z,98983.83
2023-01-27T10:44:27.941Z,98984.83
2023-01-27T10:45:37.892Z,98983.92
2023-01-27T10:47:06.475Z,98986.76
2023-01-27T10:48:30.576Z,98986.89
2023-01-27T10:49:38.740Z,98990.64
2023-01-27T10:51:05.813Z,98985.77
2023-01-27T10:52:20.915Z,98985.55
2023-01-27T10:53:34.133Z,98983.24
2023-01-27T10:54:55.812Z,98984.01
2023-01-27T10:56:28.683Z,98985.66
2023-01-27T10:57:56.712Z,98983.73
2023-01-27T10:59:11.324Z,98984.54
2023-01-27T11:02:24.453Z,98985.69
2023-01-27T11:03:41.025Z,98981.11
2023-01-27T11:04:58.676Z,98982.70
2023-01-27T11:06:08.422Z,98980.73
2023-01-27T11:07:19.380Z,98985.13
2023-01-27T11:08:27.301Z,98982.61
2023-01-27T11:09:34.268Z,98985.80
2023-01-27T11:11:09.817Z,98979.23
2023-01-27T11:12:16.154Z,98979.96
2023-01-27T11:13:18.554Z,98976.45
2023-01-27T11:14:50.915Z,98971.48
2023-01-27T11:15:53.777Z,98970.73
2023-01-27T11:17:01.632Z,98969.22
2023-01-27T11:18:20.329Z,98966.36
2023-01-27T11:19:35.928Z,98965.00
2023-01-27T11:20:54.172Z,98965.45
2023-01-27T11:22:07.841Z,98963.31
2023-01-27T11:23:10.360Z,98964.20
2023-01-27T11:24:36.603Z,98964.57
2023-01-27T11:25:55.875Z,98962.48
2023-01-27T11:27:17.725Z,98959.00
2023-01-27T11:28:25.453Z,98960.27
2023-01-27T11:29:42.782Z,98957.34
2023-01-27T11:31:23.120Z,98955.29
2023-01-27T11:32:52.228Z,98955.36
2023-01-27T11:34:26.948Z,98956.28
2023-01-27T11:35:28.875Z,98956.66
2023-01-27T11:36:31.275Z,98956.50
2023-01-27T11:37:43.204Z,98959.41
2023-01-27T11:38:45.288Z,98959.51
2023-01-27T11:39:48.513Z,98958.37
2023-01-27T11:40:53.227Z,98957.71
2023-01-27T11:41:57.169Z,98954.00
2023-01-27T11:43:00.797Z,98951.55
2023-01-27T11:44:09.487Z,98953.33
2023-01-27T11:45:16.472Z,98952.03
2023-01-27T11:46:23.929Z,98949.66
2023-01-27T11:47:38.775Z,98946.88
2023-01-27T11:48:47.440Z,98948.61
2023-01-27T11:49:53.009Z,98951.98
2023-01-27T11:50:54.893Z,98950.67
2023-01-27T11:52:16.038Z,98951.49
2023-01-27T11:53:28.721Z,98952.11
2023-01-27T11:54:39.332Z,98951.75
2023-01-27T11:56:00.735Z,98951.63
2023-01-27T11:57:02.618Z,98958.15
2023-01-27T11:58:32.957Z,98956.42
2023-01-27T11:59:41.771Z,98958.52
2023-01-27T12:00:56.732Z,98957.95
2023-01-27T12:02:07.273Z,98951.83
2023-01-27T12:03:33.625Z,98955.07
2023-01-27T12:04:38.300Z,98954.02
2023-01-27T12:05:51.810Z,98953.50
2023-01-27T12:07:20.848Z,98954.64
2023-01-27T12:08:56.006Z,98952.84
2023-01-27T12:09:57.814Z,98955.40
2023-01-27T12:11:22.995Z,98955.96
2023-01-27T12:12:27.386Z,98954.67
2023-01-27T12:13:29.402Z,98952.38
2023-01-27T12:14:31.213Z,98954.54
2023-01-27T12:15:33.527Z,98957.04
2023-01-27T12:16:55.940Z,98959.66
2023-01-27T12:18:11.350Z,98960.89
2023-01-27T12:19:22.141Z,98955.76
2023-01-27T12:20:35.147Z,98956.33
2023-01-27T12:21:49.890Z,98954.48
2023-01-27T12:23:00.183Z,98954.81
2023-01-27T12:24:02.477Z,98952.64
2023-01-27T12:25:14.358Z,98955.67
2023-01-27T12:26:37.497Z,98954.33
2023-01-27T12:27:52.198Z,98958.89
2023-01-27T12:28:55.268Z,98958.17
2023-01-27T12:30:02.912Z,98956.14
2023-01-27T12:31:17.804Z,98955.28
2023-01-27T12:32:41.362Z,98952.90
2023-01-27T12:33:52.025Z,98958.52
2023-01-27T12:34:56.541Z,98962.36
2023-01-27T12:36:12.009Z,98960.44
2023-01-27T12:37:24.058Z,98964.16
2023-01-27T12:38:33.191Z,98960.11
2023-01-27T12:39:50.380Z,98963.18
2023-01-27T12:41:02.292Z,98959.90
2023-01-27T12:42:04.356Z,98960.02
2023-01-27T12:43:06.180Z,98958.96
2023-01-27T12:44:22.410Z,98958.48
2023-01-27T12:45:34.949Z,98954.66
2023-01-27T12:46:42.437Z,98954.29
2023-01-27T12:48:01.530Z,98954.38
2023-01-27T12:49:15.220Z,98949.34
2023-01-27T12:50:26.638Z,98950.94
2023-01-27T12:51:51.238Z,98952.83
2023-01-27T12:53:05.886Z,98953.89
2023-01-27T12:54:22.734Z,98948.48
2023-01-27T12:55:40.948Z,98952.20
2023-01-27T12:56:43.699Z,98947.42
2023-01-27T12:57:45.571Z,98950.90
2023-01-27T12:58:58.403Z,98952.41
2023-01-27T13:00:00.314Z,98947.41
2023-01-27T13:01:20.536Z,98952.09
2023-01-27T13:02:26.318Z,98949.63
2023-01-27T13:03:29.891Z,98949.10
2023-01-27T13:04:32.336Z,98947.66
2023-01-27T13:05:43.370Z,98950.83
2023-01-27T13:06:50.648Z,98953.52
2023-01-27T13:07:53.990Z,98951.48
2023-01-27T13:08:57.755Z,98950.49
2023-01-27T13:10:04.054Z,98951.71
2023-01-27T13:11:07.054Z,98957.68
2023-01-27T13:12:32.127Z,98958.92
2023-01-27T13:13:35.245Z,98957.95
2023-01-27T13:14:42.219Z,98957.23
2023-01-27T13:16:11.493Z,98955.80